Time;durP1;ratioP1;P1;durP2;ratioP2;P2;SDS_P1;SDS_P2;PMS_P1;PMS_P2;Temp;Humidity;BMP_temperature;BMP_pressure;BME280_temperature;BME280_humidity;BME280_pressure;Samples;Min_cycle;Max_cycle;Signal;HPM_P1;HPM_P2
2022/10/20 00:02:11;;;;;;;0.72;0.40;;;;;;;5.98;72.75;100121.05;1623629;87;21055;-70
2022/10/20 00:04:41;;;;;;;1.10;0.40;;;;;;;5.96;72.90;100118.17;1620483;87;21058;-71
2022/10/20 00:07:12;;;;;;;1.02;0.45;;;;;;;5.96;73.31;100123.09;1628653;88;21023;-71
2022/10/20 00:09:42;;;;;;;1.00;0.42;;;;;;;5.95;73.52;100125.99;1620330;88;21051;-69
2022/10/20 00:12:12;;;;;;;0.78;0.60;;;;;;;5.92;73.86;100129.91;1596947;90;21126;-69
2022/10/20 00:14:42;;;;;;;3.87;0.75;;;;;;;5.90;74.15;100132.46;1596875;90;21150;-69
2022/10/20 00:17:12;;;;;;;1.35;0.70;;;;;;;5.84;74.40;100129.02;1633525;86;21963;-71
2022/10/20 00:19:45;;;;;;;2.75;0.60;;;;;;;5.76;74.81;100133.12;1621177;88;21056;-70
2022/10/20 00:22:15;;;;;;;1.05;0.80;;;;;;;5.73;75.33;100141.95;1625395;87;21495;-70
2022/10/20 00:24:46;;;;;;;1.12;0.80;;;;;;;5.68;75.68;100135.34;1631926;87;21158;-69
2022/10/20 00:27:15;;;;;;;7.03;0.90;;;;;;;5.64;76.30;100142.98;1623544;87;21968;-70
2022/10/20 00:29:48;;;;;;;1.35;0.60;;;;;;;5.62;76.48;100137.39;1621175;88;21072;-69
2022/10/20 00:32:17;;;;;;;2.90;0.80;;;;;;;5.57;76.50;100134.34;1629486;86;21523;-69
2022/10/20 00:34:47;;;;;;;2.33;1.35;;;;;;;5.51;76.50;100129.08;1636085;86;21063;-69
2022/10/20 00:37:17;;;;;;;3.35;0.85;;;;;;;5.48;76.68;100138.09;1642834;85;21158;-69
2022/10/20 00:39:47;;;;;;;0.98;0.60;;;;;;;5.47;76.75;100143.19;1664614;86;21065;-68
2022/10/20 00:42:20;;;;;;;1.60;0.70;;;;;;;5.46;76.74;100145.05;1650336;87;21080;-70
2022/10/20 00:44:58;;;;;;;1.10;0.70;;;;;;;5.43;76.42;100157.62;1664545;86;21056;-70
2022/10/20 00:47:59;;;;;;;0.98;0.70;;;;;;;5.37;76.39;100157.80;1678337;85;21067;-68
2022/10/20 00:50:36;;;;;;;1.37;0.60;;;;;;;5.35;76.46;100161.19;1678750;85;21021;-70
2022/10/20 00:53:05;;;;;;;0.70;0.53;;;;;;;5.35;76.47;100163.06;1650559;84;21055;-70
2022/10/20 00:55:39;;;;;;;0.93;0.60;;;;;;;5.33;76.40;100159.16;1674686;85;21538;-69
2022/10/20 00:58:08;;;;;;;0.93;0.60;;;;;;;5.30;76.39;100162.20;1675277;83;20999;-72
2022/10/20 01:00:39;;;;;;;2.05;0.80;;;;;;;5.32;76.47;100166.11;1645726;86;21049;-69
2022/10/20 01:03:14;;;;;;;3.02;0.85;;;;;;;5.32;76.28;100164.75;1674257;85;21030;-69
2022/10/20 01:05:44;;;;;;;5.65;1.52;;;;;;;5.30;76.09;100162.20;1675978;85;21452;-69
2022/10/20 01:08:13;;;;;;;2.95;0.90;;;;;;;5.27;75.71;100164.41;1650180;86;21020;-68
2022/10/20 01:11:03;;;;;;;2.22;0.85;;;;;;;5.21;75.84;100161.87;1683064;85;21005;-69
2022/10/20 01:13:54;;;;;;;3.45;0.98;;;;;;;5.21;75.99;100164.58;1656189;85;21453;-68
2022/10/20 01:16:48;;;;;;;2.72;1.30;;;;;;;5.23;75.86;100163.91;1671768;84;21008;-69
2022/10/20 01:19:34;;;;;;;3.33;1.00;;;;;;;5.25;75.96;100165.95;1650319;86;21036;-69
2022/10/20 01:22:26;;;;;;;1.70;0.88;;;;;;;5.27;75.72;100158.98;1664241;86;21075;-69
2022/10/20 01:25:23;;;;;;;3.42;1.20;;;;;;;5.24;75.74;100162.04;1651408;84;21065;-67
2022/10/20 01:27:58;;;;;;;2.15;1.00;;;;;;;5.22;75.58;100162.72;1678992;85;21044;-69
2022/10/20 01:30:28;;;;;;;2.40;1.00;;;;;;;5.17;75.63;100167.27;1660203;86;21558;-70
2022/10/20 01:33:18;;;;;;;1.17;0.72;;;;;;;5.15;75.60;100161.16;1677957;85;21057;-70
2022/10/20 01:36:05;;;;;;;5.67;0.72;;;;;;;5.14;75.50;100154.02;1688070;84;21086;-69
2022/10/20 01:38:39;;;;;;;1.47;0.60;;;;;;;5.10;75.30;100168.45;1650422;85;21091;-70
2022/10/20 01:41:16;;;;;;;1.32;0.62;;;;;;;5.09;75.18;100171.33;1664551;86;21052;-68
2022/10/20 01:43:46;;;;;;;1.12;0.85;;;;;;;5.06;75.06;100174.38;1664555;86;21074;-69
2022/10/20 01:46:16;;;;;;;0.90;0.60;;;;;;;5.01;74.84;100183.54;1650216;87;21053;-69
2022/10/20 01:48:46;;;;;;;1.50;0.57;;;;;;;4.96;75.10;100184.55;1664586;85;21044;-68
2022/10/20 01:51:16;;;;;;;1.42;0.62;;;;;;;4.96;75.14;100189.98;1646126;86;21060;-68
2022/10/20 01:53:48;;;;;;;1.12;0.78;;;;;;;4.92;75.07;100187.25;1682898;84;21047;-69
2022/10/20 01:56:21;;;;;;;0.98;0.60;;;;;;;4.88;75.34;100189.45;1675982;85;21004;-68
2022/10/20 01:58:58;;;;;;;2.20;0.60;;;;;;;4.89;75.48;100190.30;1679099;84;21488;-69
2022/10/20 02:01:49;;;;;;;;;;;;;;;4.93;75.58;100194.39;1695939;84;21012;-69
2022/10/20 02:04:21;;;;;;;8.98;1.57;;;;;;;4.96;75.47;100192.69;1659538;84;20269;-69
2022/10/20 02:07:07;;;;;;;4.72;0.60;;;;;;;4.96;75.38;100198.12;1679050;85;21437;-69
2022/10/20 02:09:46;;;;;;;2.08;0.75;;;;;;;4.97;75.38;100187.09;1669868;84;21452;-70
2022/10/20 02:12:22;;;;;;;1.65;0.40;;;;;;;5.00;75.26;100198.98;1668411;85;21089;-69
2022/10/20 02:14:54;;;;;;;1.42;0.60;;;;;;;5.02;75.07;100195.59;1664671;85;21051;-66
2022/10/20 02:17:23;;;;;;;1.17;0.40;;;;;;;5.03;75.02;100204.59;1651282;85;21068;-70
2022/10/20 02:19:52;;;;;;;1.05;0.60;;;;;;;5.03;74.68;100199.16;1664580;85;21003;-68
2022/10/20 02:22:21;;;;;;;0.78;0.55;;;;;;;5.01;74.66;100202.04;1650167;87;21420;-69
2022/10/20 02:24:52;;;;;;;1.40;0.50;;;;;;;5.00;74.52;100203.05;1664642;86;21427;-68
2022/10/20 02:27:26;;;;;;;1.37;0.60;;;;;;;4.98;74.33;100211.02;1655744;85;21068;-68
2022/10/20 02:30:07;;;;;;;1.35;0.60;;;;;;;4.95;74.38;100216.78;1675280;84;21505;-67
2022/10/20 02:32:40;;;;;;;0.82;0.57;;;;;;;4.94;74.61;100217.30;1662517;85;21009;-68
2022/10/20 02:35:14;;;;;;;1.25;0.50;;;;;;;4.98;74.73;100218.66;1652610;85;21068;-67
2022/10/20 02:37:44;;;;;;;2.22;0.50;;;;;;;5.01;74.90;100222.91;1664416;86;21043;-67
2022/10/20 02:40:14;;;;;;;0.85;0.60;;;;;;;5.04;75.06;100214.43;1656398;85;21465;-67
2022/10/20 02:42:44;;;;;;;1.40;0.60;;;;;;;5.09;75.07;100225.13;1693719;83;21056;-69
2022/10/20 02:45:13;;;;;;;0.90;0.50;;;;;;;5.12;74.72;100223.09;1661632;85;21081;-68
2022/10/20 02:47:42;;;;;;;4.78;0.80;;;;;;;5.09;74.74;100217.49;1693667;84;20980;-68
2022/10/20 02:50:11;;;;;;;2.27;0.70;;;;;;;5.09;74.72;100222.92;1678829;85;21016;-68
2022/10/20 02:52:41;;;;;;;1.45;0.80;;;;;;;5.07;74.62;100216.30;1684020;84;21051;-68
2022/10/20 02:55:10;;;;;;;1.72;0.60;;;;;;;5.05;74.76;100235.14;1679044;84;21029;-70
2022/10/20 02:57:41;;;;;;;0.90;0.55;;;;;;;5.03;74.67;100224.95;1694121;85;21001;-68
2022/10/20 03:00:13;;;;;;;1.02;0.60;;;;;;;4.99;74.58;100231.22;1679040;85;21506;-69
2022/10/20 03:02:42;;;;;;;1.80;0.65;;;;;;;4.95;74.57;100233.92;1694122;84;21084;-68
2022/10/20 03:05:12;;;;;;;2.15;0.80;;;;;;;4.91;74.76;100239.34;1667856;85;21020;-69
2022/10/20 03:07:41;;;;;;;1.92;0.80;;;;;;;4.91;74.96;100232.55;1672577;85;21067;-67
2022/10/20 03:10:11;;;;;;;1.45;0.72;;;;;;;4.92;75.05;100242.91;1677590;85;21068;-69
2022/10/20 03:12:41;;;;;;;1.42;0.57;;;;;;;4.92;75.00;100231.55;1678069;85;21043;-67
2022/10/20 03:15:11;;;;;;;1.75;0.78;;;;;;;4.96;74.96;100230.70;1679012;85;21021;-68
2022/10/20 03:17:42;;;;;;;1.10;0.70;;;;;;;4.96;74.95;100230.70;1693912;84;21105;-67
2022/10/20 03:20:13;;;;;;;2.72;1.20;;;;;;;4.96;74.99;100230.70;1679293;85;21064;-69
2022/10/20 03:22:43;;;;;;;2.00;1.20;;;;;;;4.92;74.81;100242.40;1693954;85;20985;-68
2022/10/20 03:25:14;;;;;;;2.30;1.30;;;;;;;4.90;74.74;100232.22;1673064;85;21477;-67
2022/10/20 03:27:42;;;;;;;2.08;1.40;;;;;;;4.88;74.72;100231.53;1676749;84;21453;-69
2022/10/20 03:30:13;;;;;;;3.77;1.40;;;;;;;4.84;74.76;100226.59;1668265;85;21056;-69
2022/10/20 03:32:43;;;;;;;2.15;1.07;;;;;;;4.83;74.79;100226.25;1666542;85;21483;-68
2022/10/20 03:35:12;;;;;;;2.90;1.20;;;;;;;4.83;74.94;100232.53;1659941;86;21478;-70
2022/10/20 03:37:42;;;;;;;1.62;1.02;;;;;;;4.83;74.97;100225.75;1621125;88;21068;-69
2022/10/20 03:40:11;;;;;;;1.12;0.80;;;;;;;4.82;74.87;100241.69;1621207;88;21121;-68
2022/10/20 03:42:41;;;;;;;1.32;0.70;;;;;;;4.82;75.08;100243.05;1639155;87;21460;-69
2022/10/20 03:45:12;;;;;;;2.77;0.78;;;;;;;4.86;74.92;100234.06;1609769;88;21044;-68
2022/10/20 03:47:44;;;;;;;5.30;0.50;;;;;;;4.86;74.91;100233.56;1603396;87;21041;-68
2022/10/20 03:50:15;;;;;;;0.68;0.60;;;;;;;4.86;74.95;100236.78;1621508;87;21564;-68
2022/10/20 03:52:48;;;;;;;1.12;0.68;;;;;;;4.84;74.96;100229.31;1621162;88;21068;-67
2022/10/20 03:55:18;;;;;;;1.57;0.90;;;;;;;4.81;74.97;100230.49;1621086;88;21076;-68
2022/10/20 03:57:48;;;;;;;0.82;0.70;;;;;;;4.82;74.81;100234.05;1621025;88;21538;-68
2022/10/20 04:00:19;;;;;;;4.15;1.42;;;;;;;4.80;74.76;100232.86;1621319;88;21080;-68
2022/10/20 04:02:50;;;;;;;3.60;0.70;;;;;;;4.78;74.73;100241.17;1627791;87;21044;-67
2022/10/20 04:05:20;;;;;;;1.82;0.78;;;;;;;4.77;74.68;100237.27;1634299;86;21116;-69
2022/10/20 04:07:50;;;;;;;0.93;0.53;;;;;;;4.74;74.74;100230.30;1628243;87;21103;-69
2022/10/20 04:10:19;;;;;;;1.87;0.70;;;;;;;4.72;74.71;100236.91;1634013;87;21107;-68
2022/10/20 04:12:50;;;;;;;1.05;0.60;;;;;;;4.69;74.74;100235.88;1631972;88;21079;-68
2022/10/20 04:15:22;;;;;;;1.90;0.75;;;;;;;4.66;74.84;100245.70;1633925;86;21156;-68
2022/10/20 04:17:58;;;;;;;2.47;0.93;;;;;;;4.64;74.83;100244.51;1596885;88;21167;-69
2022/10/20 04:20:29;;;;;;;2.50;0.80;;;;;;;4.62;74.95;100246.53;1621360;88;21060;-68
2022/10/20 04:22:59;;;;;;;2.55;0.90;;;;;;;4.62;75.21;100244.33;1637670;87;21167;-68
2022/10/20 04:25:29;;;;;;;1.80;1.00;;;;;;;4.62;75.23;100243.83;1621155;88;21080;-69
2022/10/20 04:27:59;;;;;;;2.05;0.90;;;;;;;4.63;75.42;100246.87;1649225;86;21115;-68
2022/10/20 04:30:29;;;;;;;2.15;1.05;;;;;;;4.67;75.35;100243.33;1621287;88;21059;-68
2022/10/20 04:33:00;;;;;;;1.67;0.80;;;;;;;4.69;75.30;100247.59;1631792;87;21067;-68
2022/10/20 04:35:30;;;;;;;2.75;0.70;;;;;;;4.66;75.18;100253.84;1632555;88;21103;-68
2022/10/20 04:37:59;;;;;;;3.42;0.90;;;;;;;4.68;75.24;100251.81;1637687;86;21123;-68
2022/10/20 04:40:30;;;;;;;1.92;0.80;;;;;;;4.65;75.21;100256.22;1632184;86;21111;-69
2022/10/20 04:43:00;;;;;;;1.05;0.70;;;;;;;4.66;75.29;100271.48;1632256;86;21213;-69
2022/10/20 04:45:31;;;;;;;0.85;0.70;;;;;;;4.66;75.32;100259.27;1633562;86;21063;-69
2022/10/20 04:48:03;;;;;;;2.20;0.90;;;;;;;4.64;75.16;100263.50;1632026;88;21464;-68
2022/10/20 04:50:33;;;;;;;2.10;0.72;;;;;;;4.60;75.25;100262.12;1614397;88;21639;-69
2022/10/20 04:53:09;;;;;;;1.33;0.50;;;;;;;4.58;75.20;100273.66;1632098;88;21103;-68
2022/10/20 04:55:40;;;;;;;3.35;1.10;;;;;;;4.56;75.32;100268.89;1631899;88;22278;-69
2022/10/20 04:58:10;;;;;;;3.05;1.05;;;;;;;4.55;75.32;100275.81;1632174;86;21059;-67
2022/10/20 05:00:39;;;;;;;2.20;0.72;;;;;;;4.58;75.45;100280.44;1631924;88;21094;-68
2022/10/20 05:03:10;;;;;;;3.12;1.25;;;;;;;4.63;75.35;100274.52;1633792;86;21110;-69
2022/10/20 05:05:40;;;;;;;4.15;0.90;;;;;;;4.64;75.35;100281.65;1652015;85;21040;-69
2022/10/20 05:08:10;;;;;;;1.80;0.72;;;;;;;4.65;75.43;100280.13;1684595;85;21092;-68
2022/10/20 05:10:40;;;;;;;2.15;0.78;;;;;;;4.65;75.43;100282.84;1678915;85;21454;-69
2022/10/20 05:13:09;;;;;;;3.92;2.30;;;;;;;4.63;75.51;100294.87;1693592;84;21128;-68
2022/10/20 05:15:39;;;;;;;1.50;0.90;;;;;;;4.60;75.64;100287.91;1655783;85;21467;-69
2022/10/20 05:18:09;;;;;;;1.60;0.70;;;;;;;4.61;75.82;100295.55;1677963;84;21059;-68
2022/10/20 05:20:41;;;;;;;2.60;0.85;;;;;;;4.61;75.64;100299.11;1678775;85;21036;-67
2022/10/20 05:23:13;;;;;;;3.37;1.12;;;;;;;4.61;75.83;100294.19;1689668;84;21056;-69
2022/10/20 05:25:44;;;;;;;1.65;1.00;;;;;;;4.61;75.90;100299.61;1639018;87;21058;-69
2022/10/20 05:28:14;;;;;;;1.90;1.12;;;;;;;4.63;76.02;100304.38;1625050;88;21019;-70
2022/10/20 05:30:44;;;;;;;2.33;0.80;;;;;;;4.63;75.91;100300.30;1661406;84;21412;-68
2022/10/20 05:33:14;;;;;;;5.22;1.15;;;;;;;4.62;75.89;100310.30;1679047;85;21017;-69
2022/10/20 05:35:44;;;;;;;6.92;1.02;;;;;;;4.57;76.16;100300.44;1693582;83;21095;-69
2022/10/20 05:38:14;;;;;;;3.12;1.32;;;;;;;4.60;76.53;100314.19;1678953;85;21095;-69
2022/10/20 05:40:44;;;;;;;2.52;1.10;;;;;;;4.62;76.85;100310.30;1693728;83;21459;-69
2022/10/20 05:43:14;;;;;;;1.60;1.12;;;;;;;4.66;77.29;100318.97;1678071;85;21041;-69
2022/10/20 05:45:48;;;;;;;1.15;0.85;;;;;;;4.67;77.38;100317.96;1694012;84;21021;-70
2022/10/20 05:48:18;;;;;;;2.12;0.70;;;;;;;4.68;77.44;100321.02;1661942;85;21503;-70
2022/10/20 05:50:48;;;;;;;2.05;1.20;;;;;;;4.68;77.43;100325.09;1693767;84;21020;-69
2022/10/20 05:53:17;;;;;;;3.25;0.90;;;;;;;4.67;77.54;100328.31;1679173;84;21041;-70
2022/10/20 05:55:46;;;;;;;7.00;1.40;;;;;;;4.64;77.57;100334.06;1694143;84;21015;-69
2022/10/20 05:58:22;;;;;;;2.10;1.20;;;;;;;4.63;78.11;100332.36;1678968;85;21029;-69
2022/10/20 06:00:52;;;;;;;4.25;1.37;;;;;;;4.67;78.30;100331.02;1693768;85;21008;-67
2022/10/20 06:03:22;;;;;;;3.12;1.05;;;;;;;4.70;78.18;100333.92;1652340;85;20988;-69
2022/10/20 06:05:58;;;;;;;4.17;1.22;;;;;;;4.64;78.08;100340.84;1666391;84;21036;-70
2022/10/20 06:08:31;;;;;;;3.10;1.20;;;;;;;4.62;78.39;100355.08;1650699;85;21089;-72
2022/10/20 06:11:04;;;;;;;7.47;1.92;;;;;;;4.60;78.61;100352.18;1664394;85;21079;-71
2022/10/20 06:13:34;;;;;;;4.00;1.00;;;;;;;4.61;78.80;100355.23;1650490;87;21298;-73
2022/10/20 06:16:10;;;;;;;2.70;0.95;;;;;;;4.61;78.69;100349.81;1664672;86;21023;-72
2022/10/20 06:18:41;;;;;;;2.93;1.10;;;;;;;4.58;79.01;100348.27;1650572;86;21083;-72
2022/10/20 06:21:20;;;;;;;4.50;1.30;;;;;;;4.54;79.07;100353.64;1664388;86;21686;-73
2022/10/20 06:23:50;;;;;;;7.78;1.70;;;;;;;4.58;79.35;100360.98;1651280;85;21444;-72
2022/10/20 06:26:23;;;;;;;5.72;1.70;;;;;;;4.60;79.56;100363.88;1664809;86;21482;-74
2022/10/20 06:28:56;;;;;;;6.37;1.67;;;;;;;4.61;79.69;100354.73;1650218;86;21993;-71
2022/10/20 06:31:34;;;;;;;3.10;1.40;;;;;;;4.64;79.85;100359.84;1663926;86;21035;-72
2022/10/20 06:34:05;;;;;;;2.85;1.30;;;;;;;4.64;79.99;100362.55;1671420;85;21077;-72
2022/10/20 06:36:36;;;;;;;1.70;1.02;;;;;;;4.64;80.12;100359.84;1687485;84;21028;-72
2022/10/20 06:39:06;;;;;;;3.25;1.10;;;;;;;4.66;80.39;100370.03;1684383;84;21033;-75
2022/10/20 06:41:37;;;;;;;1.37;0.90;;;;;;;4.70;80.37;100362.42;1629864;86;21557;-72
2022/10/20 06:44:06;;;;;;;1.10;0.90;;;;;;;4.71;80.38;100359.55;1612282;87;21096;-72
2022/10/20 06:46:38;;;;;;;2.55;1.10;;;;;;;4.71;80.24;100366.33;1621021;87;21067;-71
2022/10/20 06:49:07;;;;;;;2.30;1.52;;;;;;;4.73;80.28;100362.09;1620964;88;21520;-72
2022/10/20 07:03:04;;;;;;;7.17;3.02;;;;;;;5.27;79.42;100384.44;1829728;77;22121;-72
2022/10/20 07:05:34;;;;;;;4.30;2.40;;;;;;;5.18;79.35;100385.39;1788829;80;21166;-72
2022/10/20 07:08:06;;;;;;;6.33;2.35;;;;;;;5.09;79.14;100388.58;1788372;80;21211;-71
2022/10/20 07:10:38;;;;;;;5.35;2.45;;;;;;;5.04;79.43;100384.14;1773575;79;21071;-71
2022/10/20 07:13:09;;;;;;;3.55;1.50;;;;;;;5.01;79.50;100386.67;1724222;83;21158;-70
2022/10/20 07:15:45;;;;;;;7.28;1.82;;;;;;;5.00;79.64;100390.91;1724213;83;21157;-70
2022/10/20 07:18:14;;;;;;;4.23;1.70;;;;;;;5.00;79.72;100388.19;1687770;85;21161;-71
2022/10/20 07:20:44;;;;;;;4.15;1.60;;;;;;;4.98;79.74;100391.07;1724202;82;21333;-71
2022/10/20 07:23:14;;;;;;;3.58;1.50;;;;;;;4.98;79.78;100398.36;1724231;82;21177;-70
2022/10/20 07:25:43;;;;;;;2.72;1.30;;;;;;;4.97;79.74;100396.16;1722113;83;21114;-70
2022/10/20 07:28:12;;;;;;;3.02;1.70;;;;;;;4.94;79.69;100404.62;1688173;85;21225;-70
2022/10/20 07:30:42;;;;;;;3.02;1.30;;;;;;;4.94;79.82;100399.20;1701404;83;21184;-71
2022/10/20 07:33:11;;;;;;;2.65;1.10;;;;;;;4.96;79.87;100398.53;1704481;83;21113;-70
2022/10/20 07:35:42;;;;;;;9.05;1.37;;;;;;;4.96;79.82;100400.39;1724541;83;21197;-70
2022/10/20 07:38:12;;;;;;;2.87;1.57;;;;;;;4.96;79.98;100400.39;1724186;83;21153;-72
2022/10/20 07:40:42;;;;;;;4.50;1.60;;;;;;;5.00;80.27;100411.27;1714611;82;21129;-70
2022/10/20 07:43:12;;;;;;;1.25;1.07;;;;;;;5.01;80.39;100408.39;1724292;83;21114;-70
2022/10/20 07:45:41;;;;;;;1.92;1.22;;;;;;;5.04;80.28;100412.14;1710289;82;22383;-72
2022/10/20 07:48:11;;;;;;;2.55;1.30;;;;;;;5.01;80.31;100415.69;1724917;82;21196;-71
2022/10/20 07:50:41;;;;;;;2.90;1.50;;;;;;;5.00;80.36;100414.84;1721580;83;21168;-72
2022/10/20 07:53:13;;;;;;;1.95;1.20;;;;;;;5.02;80.53;100422.31;1728313;82;21091;-73
2022/10/20 07:55:45;;;;;;;2.17;1.30;;;;;;;5.06;80.52;100425.56;1724482;82;21606;-67
2022/10/20 07:58:15;;;;;;;1.77;1.20;;;;;;;5.06;80.42;100418.77;1716561;82;21231;-68
2022/10/20 08:00:45;;;;;;;1.52;1.00;;;;;;;5.08;80.67;100422.18;1721120;82;21154;-69
2022/10/20 08:03:16;;;;;;;2.80;1.10;;;;;;;5.12;80.65;100427.63;1751330;82;21514;-68
2022/10/20 08:05:46;;;;;;;2.95;1.37;;;;;;;5.15;80.42;100419.66;1751315;82;21598;-66
2022/10/20 08:08:16;;;;;;;7.87;3.62;;;;;;;5.14;80.32;100428.83;1724641;82;21172;-69
2022/10/20 08:10:47;;;;;;;5.90;1.90;;;;;;;5.12;80.59;100427.63;1746911;82;21104;-68
2022/10/20 08:13:16;;;;;;;3.58;1.50;;;;;;;5.12;80.51;100420.84;1721389;83;21569;-68
2022/10/20 08:15:45;;;;;;;2.75;1.37;;;;;;;5.11;80.60;100431.36;1720997;83;21333;-69
2022/10/20 08:18:17;;;;;;;2.85;1.62;;;;;;;5.14;80.65;100434.26;1720182;83;21642;-69
2022/10/20 08:20:51;;;;;;;3.10;1.70;;;;;;;5.14;80.67;100431.54;1720206;83;21194;-65
2022/10/20 08:23:22;;;;;;;4.67;2.05;;;;;;;5.18;80.87;100445.99;1719925;83;21120;-69
2022/10/20 08:25:55;;;;;;;2.65;1.50;;;;;;;5.23;80.86;100445.03;1726238;83;21136;-69
2022/10/20 08:28:25;;;;;;;2.92;1.15;;;;;;;5.31;80.91;100432.84;1703252;84;21167;-69
2022/10/20 08:30:56;;;;;;;3.45;0.90;;;;;;;5.35;80.53;100441.02;1703018;84;21143;-67
2022/10/20 08:33:26;;;;;;;1.57;1.25;;;;;;;5.32;80.03;100453.56;1703072;84;21140;-69
2022/10/20 08:36:04;;;;;;;2.08;1.30;;;;;;;5.31;80.08;100449.14;1702965;84;21225;-68
2022/10/20 08:38:35;;;;;;;2.90;1.40;;;;;;;5.32;80.10;100448.64;1703285;84;21195;-68
2022/10/20 08:41:15;;;;;;;1.57;1.25;;;;;;;5.33;80.11;100453.91;1702941;84;21645;-68
2022/10/20 08:43:45;;;;;;;2.33;1.70;;;;;;;5.33;80.13;100457.98;1698501;83;21155;-67
2022/10/20 08:46:16;;;;;;;5.78;1.40;;;;;;;5.34;80.18;100459.69;1702997;84;21187;-69
2022/10/20 08:48:47;;;;;;;6.12;1.60;;;;;;;5.38;80.52;100461.06;1692384;85;21180;-69
2022/10/20 08:51:23;;;;;;;4.58;1.50;;;;;;;5.44;80.55;100463.64;1703045;84;21584;-70
2022/10/20 08:53:56;;;;;;;6.53;2.75;;;;;;;5.45;80.57;100467.20;1692523;85;21125;-68
2022/10/20 08:56:27;;;;;;;7.30;3.17;;;;;;;5.46;80.55;100468.40;1703257;84;21194;-68
2022/10/20 08:58:57;;;;;;;5.12;1.92;;;;;;;5.48;80.69;100476.39;1692506;85;21204;-68
2022/10/20 09:01:31;;;;;;;3.12;1.47;;;;;;;5.52;80.59;100476.41;1713083;83;21218;-68
2022/10/20 09:04:33;;;;;;;1.62;1.32;;;;;;;5.52;80.45;100477.26;1704207;84;21120;-70
2022/10/20 09:07:11;;;;;;;2.27;1.50;;;;;;;5.53;80.38;100476.75;1749133;81;21138;-66
2022/10/20 09:09:41;;;;;;;;;;;;;;;5.57;80.44;100486.28;1712737;84;21178;-68
2022/10/20 09:12:13;;;;;;;5.53;1.65;;;;;;;5.60;80.28;100480.01;1698414;83;20203;-67
2022/10/20 09:14:44;;;;;;;5.15;1.67;;;;;;;5.61;80.16;100487.15;1779919;80;21112;-69
2022/10/20 09:17:15;;;;;;;9.53;1.67;;;;;;;5.60;80.02;100491.39;1780047;80;21530;-67
2022/10/20 09:19:49;;;;;;;2.12;1.40;;;;;;;5.59;80.03;100494.61;1780053;80;21198;-67
2022/10/20 09:22:19;;;;;;;3.47;1.40;;;;;;;5.62;80.23;100498.88;1779981;80;21202;-68
2022/10/20 09:24:50;;;;;;;2.37;2.05;;;;;;;5.62;80.06;100484.77;1779961;80;21119;-68
2022/10/20 09:27:30;;;;;;;4.30;2.30;;;;;;;5.63;80.12;100489.70;1780310;80;21522;-67
2022/10/20 09:30:18;;;;;;;2.08;1.50;;;;;;;5.65;80.18;100494.47;1762245;80;21123;-68
2022/10/20 09:32:48;;;;;;;2.98;2.08;;;;;;;5.69;79.93;100497.20;1749433;82;21115;-68
2022/10/20 09:35:32;;;;;;;4.50;2.00;;;;;;;5.71;79.81;100495.17;1749403;80;21119;-69
2022/10/20 09:38:28;;;;;;;4.37;2.12;;;;;;;5.70;79.56;100507.06;1749145;82;21134;-68
2022/10/20 09:41:03;;;;;;;3.58;2.05;;;;;;;5.69;79.75;100499.92;1749207;80;21552;-69
2022/10/20 09:43:33;;;;;;;13.38;6.33;;;;;;;5.70;80.03;100511.14;1749353;82;21120;-70
2022/10/20 09:46:07;;;;;;;2.83;1.50;;;;;;;5.73;80.22;100505.37;1710985;82;21130;-70
2022/10/20 09:48:45;;;;;;;3.60;2.02;;;;;;;5.79;80.24;100502.00;1756255;80;21076;-68
2022/10/20 09:51:25;;;;;;;4.95;2.02;;;;;;;5.80;80.08;100512.37;1780329;80;21179;-69
2022/10/20 09:54:01;;;;;;;3.40;1.98;;;;;;;5.82;80.08;100505.75;1780260;80;21632;-67
2022/10/20 09:56:36;;;;;;;7.03;2.87;;;;;;;5.84;80.16;100516.45;1780044;80;21119;-69
2022/10/20 09:59:31;;;;;;;3.72;1.20;;;;;;;5.87;80.11;100518.37;1780119;80;21586;-68
2022/10/20 10:02:16;;;;;;;2.35;1.42;;;;;;;5.89;80.14;100519.09;1698875;83;21249;-68
2022/10/20 10:04:50;;;;;;;4.50;1.70;;;;;;;5.92;80.26;100524.20;1705054;84;21091;-68
2022/10/20 10:07:29;;;;;;;3.15;1.60;;;;;;;5.95;80.15;100527.95;1704995;84;21151;-69
2022/10/20 10:10:09;;;;;;;2.70;1.52;;;;;;;5.97;79.89;100532.72;1685209;84;21597;-67
2022/10/20 10:12:40;;;;;;;2.87;1.50;;;;;;;5.97;79.59;100527.78;1685520;85;21131;-68
2022/10/20 10:15:29;;;;;;;5.47;2.10;;;;;;;5.96;79.34;100531.02;1687464;83;21190;-68
2022/10/20 10:18:00;;;;;;;3.20;1.67;;;;;;;5.96;79.31;100528.80;1684932;84;21992;-67
2022/10/20 10:20:36;;;;;;;5.03;2.00;;;;;;;5.97;79.23;100532.72;1687775;85;21103;-67
2022/10/20 10:23:21;;;;;;;5.05;2.12;;;;;;;5.96;78.96;100542.40;1685044;85;21170;-67
2022/10/20 10:25:50;;;;;;;3.90;2.10;;;;;;;5.99;79.15;100543.44;1685071;84;21154;-68
2022/10/20 10:28:29;;;;;;;6.35;1.60;;;;;;;6.02;79.25;100539.88;1685280;84;21170;-67
2022/10/20 10:31:17;;;;;;;6.62;2.05;;;;;;;6.08;79.21;100537.00;1649415;87;21585;-67
2022/10/20 10:33:48;;;;;;;;;;;;;;;6.12;78.95;100534.80;1734778;82;21134;-66
2022/10/20 10:36:22;;;;;;;4.22;2.08;;;;;;;6.15;78.70;100536.68;1732097;82;20207;-68
2022/10/20 10:38:53;;;;;;;3.25;2.37;;;;;;;6.19;78.68;100541.28;1707940;82;21218;-66
2022/10/20 10:41:56;;;;;;;2.10;1.50;;;;;;;6.27;78.68;100550.83;1743664;82;21123;-67
2022/10/20 10:44:43;;;;;;;1.98;1.45;;;;;;;6.38;78.48;100557.31;1708223;82;21142;-66
2022/10/20 10:48:07;;;;;;;3.12;1.40;;;;;;;6.47;78.05;100552.22;1695545;82;21186;-66
2022/10/20 10:50:58;;;;;;;5.70;1.50;;;;;;;6.54;77.54;100539.68;1743522;81;21186;-66
2022/10/20 10:54:06;;;;;;;3.15;1.52;;;;;;;6.63;77.05;100537.81;1669452;81;21595;-65
2022/10/20 10:56:47;;;;;;;3.12;1.67;;;;;;;6.71;76.69;100544.63;1743733;81;21080;-66
2022/10/20 10:59:35;;;;;;;3.45;1.60;;;;;;;6.73;75.61;100540.38;1744087;81;21147;-67
2022/10/20 11:02:43;;;;;;;4.15;1.80;;;;;;;6.78;75.43;100540.72;1706555;83;21203;-67
2022/10/20 11:05:29;;;;;;;2.55;1.60;;;;;;;6.83;75.41;100536.97;1772742;81;21162;-65
2022/10/20 11:08:12;;;;;;;4.97;2.00;;;;;;;6.89;75.52;100539.02;1645851;85;21170;-66
2022/10/20 11:11:04;;;;;;;9.65;2.67;;;;;;;6.93;75.65;100537.66;1743959;82;21159;-66
2022/10/20 11:13:59;;;;;;;3.72;1.50;;;;;;;6.96;75.84;100555.02;1743802;82;21127;-68
2022/10/20 11:17:13;;;;;;;3.75;1.50;;;;;;;6.97;75.77;100549.39;1742902;81;21576;-68
2022/10/20 11:20:30;;;;;;;2.45;1.40;;;;;;;6.99;76.24;100558.76;1743819;81;21119;-75
2022/10/20 11:23:31;;;;;;;2.37;1.50;;;;;;;6.98;76.70;100567.95;1743579;82;21124;-66
2022/10/20 11:26:17;;;;;;;2.50;1.20;;;;;;;6.99;76.82;100564.20;1724688;82;21112;-69
2022/10/20 11:28:47;;;;;;;4.12;1.62;;;;;;;6.91;76.54;100565.06;1713635;84;21624;-72
2022/10/20 11:31:27;;;;;;;2.58;1.35;;;;;;;6.90;77.10;100566.59;1742499;81;21091;-69
2022/10/20 11:34:04;;;;;;;3.62;1.50;;;;;;;6.89;77.35;100568.98;1769203;80;21277;-69
2022/10/20 11:36:40;;;;;;;2.80;1.30;;;;;;;6.85;77.22;100569.83;1769343;81;21553;-70
2022/10/20 11:39:27;;;;;;;4.42;1.70;;;;;;;6.83;77.59;100574.59;1769124;81;21178;-69
2022/10/20 11:42:00;;;;;;;1.67;1.42;;;;;;;6.82;78.04;100572.89;1710758;81;21153;-70
2022/10/20 11:44:36;;;;;;;2.12;1.05;;;;;;;6.86;78.09;100580.20;1768091;80;21186;-68
2022/10/20 11:47:09;;;;;;;3.75;1.40;;;;;;;6.86;77.96;100576.13;1774506;80;21116;-69
2022/10/20 11:49:39;;;;;;;3.10;1.20;;;;;;;6.83;78.12;100572.37;1774277;81;21107;-70
2022/10/20 11:53:02;;;;;;;4.75;1.50;;;;;;;6.82;78.19;100583.78;1774678;81;21112;-69
2022/10/20 11:55:46;;;;;;;3.52;1.60;;;;;;;6.82;78.33;100593.82;1774533;81;21153;-70
2022/10/20 11:58:35;;;;;;;1.87;1.20;;;;;;;6.84;78.67;100601.31;1774410;81;21252;-69
2022/10/20 12:01:20;;;;;;;2.42;1.30;;;;;;;6.83;78.94;100607.27;1759569;81;21150;-69
2022/10/20 12:04:28;;;;;;;2.75;1.30;;;;;;;6.81;78.96;100606.59;1753077;80;21151;-68
2022/10/20 12:07:29;;;;;;;2.70;1.52;;;;;;;6.75;78.95;100613.22;1781792;79;21115;-71
2022/10/20 12:10:24;;;;;;;3.47;1.30;;;;;;;6.68;79.48;100615.25;1735274;80;21108;-70
2022/10/20 12:13:27;;;;;;;2.40;1.40;;;;;;;6.62;79.64;100617.28;1782457;80;21155;-71
2022/10/20 12:15:56;;;;;;;2.33;1.50;;;;;;;6.61;80.06;100618.30;1782479;80;21151;-70
2022/10/20 12:18:30;;;;;;;4.60;1.57;;;;;;;6.60;80.60;100624.77;1782558;80;21190;-71
2022/10/20 12:21:07;;;;;;;2.47;1.60;;;;;;;6.60;80.90;100624.77;1782349;80;21130;-73
2022/10/20 12:23:52;;;;;;;3.05;1.10;;;;;;;6.58;81.13;100633.61;1772938;80;21193;-70